sensor_id;sensor_type;location;lat;lon;timestamp;P1;durP1;ratioP1;P2;durP2;ratioP2
68577;SDS011;61668;45.388;11.784;2022-09-23T00:01:05;9.60;;;4.30;;
68577;SDS011;61668;45.388;11.784;2022-09-23T00:03:32;10.50;;;3.60;;
68577;SDS011;61668;45.388;11.784;2022-09-23T00:06:01;7.60;;;3.10;;
68577;SDS011;61668;45.388;11.784;2022-09-23T00:08:31;10.80;;;3.60;;
68577;SDS011;61668;45.388;11.784;2022-09-23T00:10:56;8.80;;;3.70;;
68577;SDS011;61668;45.388;11.784;2022-09-23T00:13:27;9.50;;;4.30;;
68577;SDS011;61668;45.388;11.784;2022-09-23T00:15:53;10.10;;;4.40;;
68577;SDS011;61668;45.388;11.784;2022-09-23T00:18:18;11.00;;;4.20;;
68577;SDS011;61668;45.388;11.784;2022-09-23T00:20:45;12.30;;;4.90;;
68577;SDS011;61668;45.388;11.784;2022-09-23T00:23:11;10.40;;;4.50;;
68577;SDS011;61668;45.388;11.784;2022-09-23T00:25:37;10.50;;;4.90;;
68577;SDS011;61668;45.388;11.784;2022-09-23T00:28:02;9.60;;;3.80;;
68577;SDS011;61668;45.388;11.784;2022-09-23T00:30:28;10.70;;;4.30;;
68577;SDS011;61668;45.388;11.784;2022-09-23T00:32:54;11.50;;;3.80;;
68577;SDS011;61668;45.388;11.784;2022-09-23T00:35:21;9.00;;;3.40;;
68577;SDS011;61668;45.388;11.784;2022-09-23T00:37:47;10.60;;;3.70;;
68577;SDS011;61668;45.388;11.784;2022-09-23T00:40:12;10.20;;;3.70;;
68577;SDS011;61668;45.388;11.784;2022-09-23T00:42:45;12.70;;;4.70;;
68577;SDS011;61668;45.388;11.784;2022-09-23T00:45:16;10.90;;;5.10;;
68577;SDS011;61668;45.388;11.784;2022-09-23T00:47:46;9.80;;;3.70;;
68577;SDS011;61668;45.388;11.784;2022-09-23T00:50:38;10.10;;;4.50;;
68577;SDS011;61668;45.388;11.784;2022-09-23T00:53:07;11.50;;;3.50;;
68577;SDS011;61668;45.388;11.784;2022-09-23T00:55:43;8.70;;;3.70;;
68577;SDS011;61668;45.388;11.784;2022-09-23T00:58:14;9.40;;;3.30;;
68577;SDS011;61668;45.388;11.784;2022-09-23T01:00:42;9.00;;;3.30;;
68577;SDS011;61668;45.388;11.784;2022-09-23T01:03:08;8.20;;;3.10;;
68577;SDS011;61668;45.388;11.784;2022-09-23T01:05:33;8.10;;;2.80;;
68577;SDS011;61668;45.388;11.784;2022-09-23T01:08:02;9.60;;;3.40;;
68577;SDS011;61668;45.388;11.784;2022-09-23T01:14:22;9.70;;;3.90;;
68577;SDS011;61668;45.388;11.784;2022-09-23T01:35:30;10.40;;;3.50;;
68577;SDS011;61668;45.388;11.784;2022-09-23T01:38:22;8.50;;;3.00;;
68577;SDS011;61668;45.388;11.784;2022-09-23T01:46:54;7.60;;;3.10;;
68577;SDS011;61668;45.388;11.784;2022-09-23T01:49:45;10.00;;;3.10;;
68577;SDS011;61668;45.388;11.784;2022-09-23T01:52:37;9.20;;;3.60;;
68577;SDS011;61668;45.388;11.784;2022-09-23T01:55:18;9.20;;;3.50;;
68577;SDS011;61668;45.388;11.784;2022-09-23T01:57:59;9.40;;;3.40;;
68577;SDS011;61668;45.388;11.784;2022-09-23T02:00:34;8.80;;;4.00;;
68577;SDS011;61668;45.388;11.784;2022-09-23T02:03:11;9.30;;;3.30;;
68577;SDS011;61668;45.388;11.784;2022-09-23T02:05:46;9.40;;;3.60;;
68577;SDS011;61668;45.388;11.784;2022-09-23T02:08:24;9.90;;;3.60;;
68577;SDS011;61668;45.388;11.784;2022-09-23T02:11:12;10.00;;;3.80;;
68577;SDS011;61668;45.388;11.784;2022-09-23T02:13:56;8.50;;;3.30;;
68577;SDS011;61668;45.388;11.784;2022-09-23T02:16:30;9.50;;;3.70;;
68577;SDS011;61668;45.388;11.784;2022-09-23T02:19:29;9.90;;;4.20;;
68577;SDS011;61668;45.388;11.784;2022-09-23T02:22:10;9.40;;;4.20;;
68577;SDS011;61668;45.388;11.784;2022-09-23T02:24:39;9.60;;;4.70;;
68577;SDS011;61668;45.388;11.784;2022-09-23T02:33:03;8.90;;;3.80;;
68577;SDS011;61668;45.388;11.784;2022-09-23T02:35:40;9.90;;;4.90;;
68577;SDS011;61668;45.388;11.784;2022-09-23T02:38:28;8.90;;;4.20;;
68577;SDS011;61668;45.388;11.784;2022-09-23T02:41:21;9.30;;;4.50;;
68577;SDS011;61668;45.388;11.784;2022-09-23T02:44:11;10.90;;;4.40;;
68577;SDS011;61668;45.388;11.784;2022-09-23T02:46:39;11.30;;;5.00;;
68577;SDS011;61668;45.388;11.784;2022-09-23T02:51:44;10.40;;;5.20;;
68577;SDS011;61668;45.388;11.784;2022-09-23T02:54:13;10.30;;;4.60;;
68577;SDS011;61668;45.388;11.784;2022-09-23T02:56:41;11.00;;;4.40;;
68577;SDS011;61668;45.388;11.784;2022-09-23T02:59:08;11.30;;;4.60;;
68577;SDS011;61668;45.388;11.784;2022-09-23T03:10:23;11.90;;;4.70;;
68577;SDS011;61668;45.388;11.784;2022-09-23T03:13:15;12.00;;;5.60;;
68577;SDS011;61668;45.388;11.784;2022-09-23T03:21:50;12.30;;;5.70;;
68577;SDS011;61668;45.388;11.784;2022-09-23T03:24:32;12.80;;;5.30;;
68577;SDS011;61668;45.388;11.784;2022-09-23T03:27:03;10.90;;;5.00;;
68577;SDS011;61668;45.388;11.784;2022-09-23T03:29:33;10.90;;;5.50;;
68577;SDS011;61668;45.388;11.784;2022-09-23T03:32:01;11.10;;;4.90;;
68577;SDS011;61668;45.388;11.784;2022-09-23T03:34:29;13.00;;;5.60;;
68577;SDS011;61668;45.388;11.784;2022-09-23T03:37:02;11.70;;;5.20;;
68577;SDS011;61668;45.388;11.784;2022-09-23T03:39:41;10.80;;;5.50;;
68577;SDS011;61668;45.388;11.784;2022-09-23T03:42:18;11.80;;;5.90;;
68577;SDS011;61668;45.388;11.784;2022-09-23T03:44:47;11.20;;;4.70;;
68577;SDS011;61668;45.388;11.784;2022-09-23T03:47:16;10.90;;;5.00;;
68577;SDS011;61668;45.388;11.784;2022-09-23T03:49:45;12.10;;;5.90;;
68577;SDS011;61668;45.388;11.784;2022-09-23T03:52:16;11.30;;;5.50;;
68577;SDS011;61668;45.388;11.784;2022-09-23T03:54:44;10.60;;;5.20;;
68577;SDS011;61668;45.388;11.784;2022-09-23T03:57:11;10.60;;;4.80;;
68577;SDS011;61668;45.388;11.784;2022-09-23T03:59:37;9.10;;;4.20;;
68577;SDS011;61668;45.388;11.784;2022-09-23T04:02:03;11.30;;;4.50;;
68577;SDS011;61668;45.388;11.784;2022-09-23T04:04:32;12.20;;;5.40;;
68577;SDS011;61668;45.388;11.784;2022-09-23T04:07:00;12.60;;;4.90;;
68577;SDS011;61668;45.388;11.784;2022-09-23T04:09:26;11.00;;;5.00;;
68577;SDS011;61668;45.388;11.784;2022-09-23T04:11:52;12.00;;;5.20;;
68577;SDS011;61668;45.388;11.784;2022-09-23T04:14:19;11.80;;;4.70;;
68577;SDS011;61668;45.388;11.784;2022-09-23T04:16:46;13.10;;;5.00;;
68577;SDS011;61668;45.388;11.784;2022-09-23T04:19:13;11.80;;;5.60;;
68577;SDS011;61668;45.388;11.784;2022-09-23T04:21:40;15.50;;;6.60;;
68577;SDS011;61668;45.388;11.784;2022-09-23T04:24:07;12.00;;;5.30;;
68577;SDS011;61668;45.388;11.784;2022-09-23T04:26:34;13.20;;;5.00;;
68577;SDS011;61668;45.388;11.784;2022-09-23T04:28:59;10.50;;;4.80;;
68577;SDS011;61668;45.388;11.784;2022-09-23T04:31:26;10.20;;;4.80;;
68577;SDS011;61668;45.388;11.784;2022-09-23T04:33:52;11.80;;;5.00;;
68577;SDS011;61668;45.388;11.784;2022-09-23T04:36:18;13.10;;;5.90;;
68577;SDS011;61668;45.388;11.784;2022-09-23T04:38:48;12.50;;;6.60;;
68577;SDS011;61668;45.388;11.784;2022-09-23T04:41:14;11.30;;;4.70;;
68577;SDS011;61668;45.388;11.784;2022-09-23T04:43:41;13.00;;;6.10;;
68577;SDS011;61668;45.388;11.784;2022-09-23T04:46:08;11.20;;;5.50;;
68577;SDS011;61668;45.388;11.784;2022-09-23T04:48:36;12.20;;;5.70;;
68577;SDS011;61668;45.388;11.784;2022-09-23T04:51:15;11.40;;;5.40;;
68577;SDS011;61668;45.388;11.784;2022-09-23T04:53:43;10.60;;;5.00;;
68577;SDS011;61668;45.388;11.784;2022-09-23T04:56:18;11.20;;;4.30;;
68577;SDS011;61668;45.388;11.784;2022-09-23T04:58:46;11.40;;;4.70;;
68577;SDS011;61668;45.388;11.784;2022-09-23T05:01:17;11.50;;;5.40;;
68577;SDS011;61668;45.388;11.784;2022-09-23T05:03:45;10.80;;;4.90;;
68577;SDS011;61668;45.388;11.784;2022-09-23T05:06:12;12.70;;;5.80;;
68577;SDS011;61668;45.388;11.784;2022-09-23T05:08:40;12.40;;;6.20;;
68577;SDS011;61668;45.388;11.784;2022-09-23T05:11:06;13.70;;;6.10;;
68577;SDS011;61668;45.388;11.784;2022-09-23T05:13:33;11.10;;;5.20;;
68577;SDS011;61668;45.388;11.784;2022-09-23T05:16:04;12.10;;;5.60;;
68577;SDS011;61668;45.388;11.784;2022-09-23T05:18:35;10.70;;;4.50;;
68577;SDS011;61668;45.388;11.784;2022-09-23T05:21:06;12.70;;;5.30;;
68577;SDS011;61668;45.388;11.784;2022-09-23T05:23:32;11.40;;;5.60;;
68577;SDS011;61668;45.388;11.784;2022-09-23T05:26:03;11.50;;;5.40;;
68577;SDS011;61668;45.388;11.784;2022-09-23T05:28:32;11.60;;;5.40;;
68577;SDS011;61668;45.388;11.784;2022-09-23T05:33:31;13.60;;;7.00;;
68577;SDS011;61668;45.388;11.784;2022-09-23T05:35:57;12.60;;;6.00;;
68577;SDS011;61668;45.388;11.784;2022-09-23T05:38:23;12.60;;;6.00;;
68577;SDS011;61668;45.388;11.784;2022-09-23T05:40:59;13.20;;;6.10;;
68577;SDS011;61668;45.388;11.784;2022-09-23T05:43:27;12.80;;;5.80;;
68577;SDS011;61668;45.388;11.784;2022-09-23T05:46:05;12.20;;;6.30;;
68577;SDS011;61668;45.388;11.784;2022-09-23T05:48:41;12.60;;;5.90;;
68577;SDS011;61668;45.388;11.784;2022-09-23T05:51:13;11.50;;;5.30;;
68577;SDS011;61668;45.388;11.784;2022-09-23T05:53:40;13.50;;;6.20;;
68577;SDS011;61668;45.388;11.784;2022-09-23T05:56:10;13.00;;;5.30;;
68577;SDS011;61668;45.388;11.784;2022-09-23T05:58:36;14.00;;;5.80;;
68577;SDS011;61668;45.388;11.784;2022-09-23T06:01:10;16.40;;;6.90;;
68577;SDS011;61668;45.388;11.784;2022-09-23T06:03:46;19.40;;;7.40;;
68577;SDS011;61668;45.388;11.784;2022-09-23T06:06:13;15.20;;;7.20;;
68577;SDS011;61668;45.388;11.784;2022-09-23T06:08:42;12.80;;;6.60;;
68577;SDS011;61668;45.388;11.784;2022-09-23T06:11:09;11.40;;;5.40;;
68577;SDS011;61668;45.388;11.784;2022-09-23T06:13:37;11.30;;;5.40;;
68577;SDS011;61668;45.388;11.784;2022-09-23T06:16:08;11.10;;;5.10;;
68577;SDS011;61668;45.388;11.784;2022-09-23T06:18:42;12.00;;;5.30;;
68577;SDS011;61668;45.388;11.784;2022-09-23T06:21:12;12.80;;;5.70;;
68577;SDS011;61668;45.388;11.784;2022-09-23T06:23:42;11.10;;;5.40;;
68577;SDS011;61668;45.388;11.784;2022-09-23T06:26:10;13.40;;;5.90;;
68577;SDS011;61668;45.388;11.784;2022-09-23T06:28:39;14.50;;;6.70;;
68577;SDS011;61668;45.388;11.784;2022-09-23T06:31:08;11.60;;;4.90;;
68577;SDS011;61668;45.388;11.784;2022-09-23T06:33:36;12.10;;;5.60;;
68577;SDS011;61668;45.388;11.784;2022-09-23T06:36:03;11.70;;;5.60;;
68577;SDS011;61668;45.388;11.784;2022-09-23T06:38:31;10.50;;;4.60;;
68577;SDS011;61668;45.388;11.784;2022-09-23T06:41:00;10.70;;;4.90;;
68577;SDS011;61668;45.388;11.784;2022-09-23T06:43:29;10.50;;;4.70;;
68577;SDS011;61668;45.388;11.784;2022-09-23T06:45:57;10.50;;;5.10;;
68577;SDS011;61668;45.388;11.784;2022-09-23T06:48:25;11.40;;;5.60;;
68577;SDS011;61668;45.388;11.784;2022-09-23T06:50:52;13.50;;;5.10;;
68577;SDS011;61668;45.388;11.784;2022-09-23T06:53:21;10.20;;;4.90;;
68577;SDS011;61668;45.388;11.784;2022-09-23T06:55:48;11.90;;;6.10;;
68577;SDS011;61668;45.388;11.784;2022-09-23T06:58:21;12.00;;;6.20;;
68577;SDS011;61668;45.388;11.784;2022-09-23T07:00:47;11.90;;;6.10;;
68577;SDS011;61668;45.388;11.784;2022-09-23T07:03:12;12.10;;;5.00;;
68577;SDS011;61668;45.388;11.784;2022-09-23T07:05:38;12.40;;;5.40;;
68577;SDS011;61668;45.388;11.784;2022-09-23T07:08:07;10.70;;;4.10;;
68577;SDS011;61668;45.388;11.784;2022-09-23T07:10:36;10.30;;;4.40;;
68577;SDS011;61668;45.388;11.784;2022-09-23T07:13:03;11.30;;;5.30;;
68577;SDS011;61668;45.388;11.784;2022-09-23T07:15:29;9.80;;;4.00;;
68577;SDS011;61668;45.388;11.784;2022-09-23T07:17:56;8.90;;;4.00;;
68577;SDS011;61668;45.388;11.784;2022-09-23T07:20:21;9.30;;;3.20;;
68577;SDS011;61668;45.388;11.784;2022-09-23T07:22:50;8.20;;;3.10;;
68577;SDS011;61668;45.388;11.784;2022-09-23T07:25:20;8.80;;;3.90;;
68577;SDS011;61668;45.388;11.784;2022-09-23T07:27:47;7.10;;;1.80;;
68577;SDS011;61668;45.388;11.784;2022-09-23T07:30:13;7.00;;;1.70;;
68577;SDS011;61668;45.388;11.784;2022-09-23T07:32:40;6.90;;;2.10;;
68577;SDS011;61668;45.388;11.784;2022-09-23T07:35:07;8.20;;;2.00;;
68577;SDS011;61668;45.388;11.784;2022-09-23T07:37:34;9.10;;;2.60;;
68577;SDS011;61668;45.388;11.784;2022-09-23T07:40:00;8.00;;;3.30;;
68577;SDS011;61668;45.388;11.784;2022-09-23T07:42:26;7.50;;;2.40;;
68577;SDS011;61668;45.388;11.784;2022-09-23T07:44:51;7.70;;;3.10;;
68577;SDS011;61668;45.388;11.784;2022-09-23T07:47:17;8.70;;;2.70;;
68577;SDS011;61668;45.388;11.784;2022-09-23T07:49:43;8.40;;;2.90;;
68577;SDS011;61668;45.388;11.784;2022-09-23T07:52:08;9.10;;;3.70;;
68577;SDS011;61668;45.388;11.784;2022-09-23T07:54:34;8.60;;;3.40;;
68577;SDS011;61668;45.388;11.784;2022-09-23T07:57:00;9.00;;;2.90;;
68577;SDS011;61668;45.388;11.784;2022-09-23T07:59:25;9.60;;;3.60;;
68577;SDS011;61668;45.388;11.784;2022-09-23T08:01:52;8.90;;;3.50;;
68577;SDS011;61668;45.388;11.784;2022-09-23T08:04:28;10.30;;;4.10;;
68577;SDS011;61668;45.388;11.784;2022-09-23T08:06:57;8.30;;;3.30;;
68577;SDS011;61668;45.388;11.784;2022-09-23T08:09:30;8.60;;;2.50;;
68577;SDS011;61668;45.388;11.784;2022-09-23T08:11:57;10.80;;;3.60;;
68577;SDS011;61668;45.388;11.784;2022-09-23T08:14:23;9.00;;;3.40;;
68577;SDS011;61668;45.388;11.784;2022-09-23T08:16:49;8.20;;;3.30;;
68577;SDS011;61668;45.388;11.784;2022-09-23T08:19:16;8.90;;;3.10;;
68577;SDS011;61668;45.388;11.784;2022-09-23T08:21:43;9.50;;;3.00;;
68577;SDS011;61668;45.388;11.784;2022-09-23T08:24:16;8.90;;;3.10;;
68577;SDS011;61668;45.388;11.784;2022-09-23T08:26:44;9.00;;;3.10;;
68577;SDS011;61668;45.388;11.784;2022-09-23T08:29:12;8.60;;;3.00;;
68577;SDS011;61668;45.388;11.784;2022-09-23T08:31:39;7.70;;;2.50;;
68577;SDS011;61668;45.388;11.784;2022-09-23T08:34:05;8.60;;;2.70;;
68577;SDS011;61668;45.388;11.784;2022-09-23T08:36:31;7.40;;;2.70;;
68577;SDS011;61668;45.388;11.784;2022-09-23T08:38:56;7.90;;;2.80;;
68577;SDS011;61668;45.388;11.784;2022-09-23T08:41:42;8.30;;;3.20;;
68577;SDS011;61668;45.388;11.784;2022-09-23T08:47:06;9.50;;;3.30;;
68577;SDS011;61668;45.388;11.784;2022-09-23T08:49:47;8.60;;;3.20;;
68577;SDS011;61668;45.388;11.784;2022-09-23T08:52:27;8.30;;;3.30;;
68577;SDS011;61668;45.388;11.784;2022-09-23T08:54:56;7.80;;;3.50;;
68577;SDS011;61668;45.388;11.784;2022-09-23T08:57:46;7.10;;;3.10;;
68577;SDS011;61668;45.388;11.784;2022-09-23T09:00:20;8.90;;;3.80;;
68577;SDS011;61668;45.388;11.784;2022-09-23T09:02:48;7.20;;;3.10;;
68577;SDS011;61668;45.388;11.784;2022-09-23T09:05:18;8.50;;;3.20;;
68577;SDS011;61668;45.388;11.784;2022-09-23T09:07:49;8.00;;;2.90;;
68577;SDS011;61668;45.388;11.784;2022-09-23T09:10:19;8.30;;;3.50;;
68577;SDS011;61668;45.388;11.784;2022-09-23T09:15:48;6.70;;;2.20;;
68577;SDS011;61668;45.388;11.784;2022-09-23T09:18:24;7.60;;;2.10;;
68577;SDS011;61668;45.388;11.784;2022-09-23T09:23:57;6.30;;;2.40;;
68577;SDS011;61668;45.388;11.784;2022-09-23T09:26:33;6.10;;;1.90;;
68577;SDS011;61668;45.388;11.784;2022-09-23T09:29:19;6.80;;;1.90;;
68577;SDS011;61668;45.388;11.784;2022-09-23T09:31:50;6.80;;;2.50;;
68577;SDS011;61668;45.388;11.784;2022-09-23T09:34:30;6.50;;;2.40;;
68577;SDS011;61668;45.388;11.784;2022-09-23T09:39:52;6.30;;;1.50;;
68577;SDS011;61668;45.388;11.784;2022-09-23T09:42:23;7.10;;;1.70;;
68577;SDS011;61668;45.388;11.784;2022-09-23T09:45:00;7.10;;;2.30;;
68577;SDS011;61668;45.388;11.784;2022-09-23T09:53:20;5.50;;;1.50;;
68577;SDS011;61668;45.388;11.784;2022-09-23T09:56:00;5.20;;;1.10;;
68577;SDS011;61668;45.388;11.784;2022-09-23T09:58:35;5.50;;;1.00;;
68577;SDS011;61668;45.388;11.784;2022-09-23T10:01:22;6.00;;;1.10;;
68577;SDS011;61668;45.388;11.784;2022-09-23T10:03:50;6.60;;;1.20;;
68577;SDS011;61668;45.388;11.784;2022-09-23T10:06:23;5.60;;;1.20;;
68577;SDS011;61668;45.388;11.784;2022-09-23T10:09:10;6.30;;;1.00;;
68577;SDS011;61668;45.388;11.784;2022-09-23T10:11:39;6.80;;;1.50;;
68577;SDS011;61668;45.388;11.784;2022-09-23T10:16:43;5.70;;;1.60;;
68577;SDS011;61668;45.388;11.784;2022-09-23T10:19:27;5.40;;;1.10;;
68577;SDS011;61668;45.388;11.784;2022-09-23T10:21:58;5.80;;;1.10;;
68577;SDS011;61668;45.388;11.784;2022-09-23T10:24:31;5.60;;;1.20;;
68577;SDS011;61668;45.388;11.784;2022-09-23T10:27:07;5.50;;;1.70;;
68577;SDS011;61668;45.388;11.784;2022-09-23T10:29:56;8.10;;;2.00;;
68577;SDS011;61668;45.388;11.784;2022-09-23T10:32:34;4.90;;;1.10;;
68577;SDS011;61668;45.388;11.784;2022-09-23T10:37:46;5.60;;;1.40;;
68577;SDS011;61668;45.388;11.784;2022-09-23T10:40:28;5.30;;;0.70;;
68577;SDS011;61668;45.388;11.784;2022-09-23T10:46:28;5.90;;;1.40;;
68577;SDS011;61668;45.388;11.784;2022-09-23T11:12:53;4.90;;;0.80;;
68577;SDS011;61668;45.388;11.784;2022-09-23T11:15:53;6.70;;;0.80;;
68577;SDS011;61668;45.388;11.784;2022-09-23T11:24:48;5.10;;;0.90;;
68577;SDS011;61668;45.388;11.784;2022-09-23T11:31:18;4.00;;;0.70;;
68577;SDS011;61668;45.388;11.784;2022-09-23T11:37:17;3.90;;;0.60;;
68577;SDS011;61668;45.388;11.784;2022-09-23T11:39:49;4.80;;;0.50;;
68577;SDS011;61668;45.388;11.784;2022-09-23T11:42:28;4.60;;;0.70;;
68577;SDS011;61668;45.388;11.784;2022-09-23T11:45:13;4.80;;;0.50;;
68577;SDS011;61668;45.388;11.784;2022-09-23T11:48:26;4.10;;;0.60;;
68577;SDS011;61668;45.388;11.784;2022-09-23T11:51:16;4.40;;;0.40;;
68577;SDS011;61668;45.388;11.784;2022-09-23T11:53:50;3.90;;;0.70;;
68577;SDS011;61668;45.388;11.784;2022-09-23T11:56:41;3.40;;;0.40;;
68577;SDS011;61668;45.388;11.784;2022-09-23T12:05:00;4.60;;;0.50;;
68577;SDS011;61668;45.388;11.784;2022-09-23T12:07:50;3.90;;;0.40;;
68577;SDS011;61668;45.388;11.784;2022-09-23T12:10:22;3.90;;;0.50;;
68577;SDS011;61668;45.388;11.784;2022-09-23T12:13:00;5.00;;;0.60;;
68577;SDS011;61668;45.388;11.784;2022-09-23T12:18:45;4.60;;;0.60;;
68577;SDS011;61668;45.388;11.784;2022-09-23T12:21:38;4.10;;;0.50;;
68577;SDS011;61668;45.388;11.784;2022-09-23T12:26:55;5.90;;;0.70;;
68577;SDS011;61668;45.388;11.784;2022-09-23T12:29:26;4.50;;;0.50;;
68577;SDS011;61668;45.388;11.784;2022-09-23T12:31:54;3.80;;;0.60;;
68577;SDS011;61668;45.388;11.784;2022-09-23T12:34:27;4.10;;;0.40;;
68577;SDS011;61668;45.388;11.784;2022-09-23T12:37:04;3.70;;;0.40;;
68577;SDS011;61668;45.388;11.784;2022-09-23T12:39:36;3.80;;;0.50;;
68577;SDS011;61668;45.388;11.784;2022-09-23T12:42:14;3.10;;;0.40;;
68577;SDS011;61668;45.388;11.784;2022-09-23T12:44:44;3.40;;;0.40;;
68577;SDS011;61668;45.388;11.784;2022-09-23T12:49:50;4.00;;;0.50;;
68577;SDS011;61668;45.388;11.784;2022-09-23T12:54:54;4.10;;;0.40;;
68577;SDS011;61668;45.388;11.784;2022-09-23T13:02:36;4.80;;;0.60;;
68577;SDS011;61668;45.388;11.784;2022-09-23T13:05:24;4.30;;;0.40;;
68577;SDS011;61668;45.388;11.784;2022-09-23T13:08:18;3.60;;;0.30;;
68577;SDS011;61668;45.388;11.784;2022-09-23T13:10:52;4.20;;;0.50;;
68577;SDS011;61668;45.388;11.784;2022-09-23T13:13:25;3.80;;;0.60;;
68577;SDS011;61668;45.388;11.784;2022-09-23T13:18:57;4.80;;;0.50;;
68577;SDS011;61668;45.388;11.784;2022-09-23T13:26:54;4.30;;;0.60;;
68577;SDS011;61668;45.388;11.784;2022-09-23T13:29:36;5.50;;;1.10;;
68577;SDS011;61668;45.388;11.784;2022-09-23T13:32:12;5.30;;;0.40;;
68577;SDS011;61668;45.388;11.784;2022-09-23T13:34:43;5.00;;;0.90;;
68577;SDS011;61668;45.388;11.784;2022-09-23T13:37:39;4.60;;;0.30;;
68577;SDS011;61668;45.388;11.784;2022-09-23T13:40:27;4.50;;;0.40;;
68577;SDS011;61668;45.388;11.784;2022-09-23T13:42:59;5.00;;;0.40;;
68577;SDS011;61668;45.388;11.784;2022-09-23T13:45:30;3.60;;;0.40;;
68577;SDS011;61668;45.388;11.784;2022-09-23T13:48:04;3.40;;;0.50;;
68577;SDS011;61668;45.388;11.784;2022-09-23T13:50:33;4.30;;;0.40;;
68577;SDS011;61668;45.388;11.784;2022-09-23T13:53:04;3.80;;;0.30;;
68577;SDS011;61668;45.388;11.784;2022-09-23T13:55:36;4.90;;;0.50;;
68577;SDS011;61668;45.388;11.784;2022-09-23T13:58:15;4.70;;;0.40;;
68577;SDS011;61668;45.388;11.784;2022-09-23T14:00:44;4.80;;;0.40;;
68577;SDS011;61668;45.388;11.784;2022-09-23T14:05:52;3.80;;;0.40;;
68577;SDS011;61668;45.388;11.784;2022-09-23T14:08:19;5.20;;;0.50;;
68577;SDS011;61668;45.388;11.784;2022-09-23T14:10:45;4.80;;;0.50;;
68577;SDS011;61668;45.388;11.784;2022-09-23T14:13:17;3.60;;;0.50;;
68577;SDS011;61668;45.388;11.784;2022-09-23T14:15:54;4.40;;;0.50;;
68577;SDS011;61668;45.388;11.784;2022-09-23T14:18:33;4.80;;;0.50;;
68577;SDS011;61668;45.388;11.784;2022-09-23T14:26:57;4.70;;;0.40;;
68577;SDS011;61668;45.388;11.784;2022-09-23T14:29:45;5.70;;;0.50;;
68577;SDS011;61668;45.388;11.784;2022-09-23T14:32:15;3.90;;;0.30;;
68577;SDS011;61668;45.388;11.784;2022-09-23T14:37:37;4.50;;;0.40;;
68577;SDS011;61668;45.388;11.784;2022-09-23T14:40:50;3.70;;;0.30;;
68577;SDS011;61668;45.388;11.784;2022-09-23T14:45:54;4.40;;;0.40;;
68577;SDS011;61668;45.388;11.784;2022-09-23T14:48:34;5.50;;;0.40;;
68577;SDS011;61668;45.388;11.784;2022-09-23T14:51:02;4.50;;;0.30;;
68577;SDS011;61668;45.388;11.784;2022-09-23T15:01:27;4.60;;;0.40;;
68577;SDS011;61668;45.388;11.784;2022-09-23T15:06:48;4.20;;;0.50;;
68577;SDS011;61668;45.388;11.784;2022-09-23T15:09:24;4.50;;;0.40;;
68577;SDS011;61668;45.388;11.784;2022-09-23T15:11:55;3.40;;;0.30;;
68577;SDS011;61668;45.388;11.784;2022-09-23T15:14:25;4.30;;;0.40;;
68577;SDS011;61668;45.388;11.784;2022-09-23T15:16:52;3.00;;;0.30;;
68577;SDS011;61668;45.388;11.784;2022-09-23T15:19:19;3.50;;;0.30;;
68577;SDS011;61668;45.388;11.784;2022-09-23T15:21:46;4.10;;;0.50;;
68577;SDS011;61668;45.388;11.784;2022-09-23T15:24:40;4.50;;;0.40;;
68577;SDS011;61668;45.388;11.784;2022-09-23T15:27:32;4.60;;;0.60;;
68577;SDS011;61668;45.388;11.784;2022-09-23T15:30:11;5.20;;;0.60;;
68577;SDS011;61668;45.388;11.784;2022-09-23T15:32:42;4.40;;;0.30;;
68577;SDS011;61668;45.388;11.784;2022-09-23T15:35:14;5.10;;;0.50;;
68577;SDS011;61668;45.388;11.784;2022-09-23T15:37:42;3.90;;;0.40;;
68577;SDS011;61668;45.388;11.784;2022-09-23T15:40:17;4.40;;;0.40;;
68577;SDS011;61668;45.388;11.784;2022-09-23T15:42:45;3.40;;;0.30;;
68577;SDS011;61668;45.388;11.784;2022-09-23T15:45:20;4.70;;;0.80;;
68577;SDS011;61668;45.388;11.784;2022-09-23T15:47:59;3.40;;;0.30;;
68577;SDS011;61668;45.388;11.784;2022-09-23T15:50:34;4.50;;;0.60;;
68577;SDS011;61668;45.388;11.784;2022-09-23T15:53:00;4.60;;;0.50;;
68577;SDS011;61668;45.388;11.784;2022-09-23T15:55:26;4.30;;;0.40;;
68577;SDS011;61668;45.388;11.784;2022-09-23T15:57:52;5.00;;;0.40;;
68577;SDS011;61668;45.388;11.784;2022-09-23T16:00:17;4.10;;;0.50;;
68577;SDS011;61668;45.388;11.784;2022-09-23T16:02:45;6.50;;;0.50;;
68577;SDS011;61668;45.388;11.784;2022-09-23T16:05:26;4.30;;;0.40;;
68577;SDS011;61668;45.388;11.784;2022-09-23T16:07:57;4.30;;;0.50;;
68577;SDS011;61668;45.388;11.784;2022-09-23T16:10:23;3.70;;;0.50;;
68577;SDS011;61668;45.388;11.784;2022-09-23T16:12:51;3.50;;;0.30;;
68577;SDS011;61668;45.388;11.784;2022-09-23T16:15:20;4.80;;;0.50;;
68577;SDS011;61668;45.388;11.784;2022-09-23T16:17:46;5.50;;;1.00;;
68577;SDS011;61668;45.388;11.784;2022-09-23T16:20:12;6.70;;;1.50;;
68577;SDS011;61668;45.388;11.784;2022-09-23T16:22:59;6.10;;;1.00;;
68577;SDS011;61668;45.388;11.784;2022-09-23T16:25:28;6.00;;;0.80;;
68577;SDS011;61668;45.388;11.784;2022-09-23T16:27:57;4.90;;;0.70;;
68577;SDS011;61668;45.388;11.784;2022-09-23T16:30:24;4.60;;;0.70;;
68577;SDS011;61668;45.388;11.784;2022-09-23T16:32:51;6.20;;;0.80;;
68577;SDS011;61668;45.388;11.784;2022-09-23T16:35:22;5.50;;;0.40;;
68577;SDS011;61668;45.388;11.784;2022-09-23T16:37:52;4.00;;;0.50;;
68577;SDS011;61668;45.388;11.784;2022-09-23T16:40:20;5.00;;;0.50;;
68577;SDS011;61668;45.388;11.784;2022-09-23T16:42:51;4.40;;;0.50;;
68577;SDS011;61668;45.388;11.784;2022-09-23T16:45:20;3.80;;;0.50;;
68577;SDS011;61668;45.388;11.784;2022-09-23T16:47:48;5.70;;;0.60;;
68577;SDS011;61668;45.388;11.784;2022-09-23T16:50:17;9.40;;;3.10;;
68577;SDS011;61668;45.388;11.784;2022-09-23T16:52:44;13.50;;;5.40;;
68577;SDS011;61668;45.388;11.784;2022-09-23T16:55:12;15.10;;;6.10;;
68577;SDS011;61668;45.388;11.784;2022-09-23T16:57:40;9.90;;;3.70;;
68577;SDS011;61668;45.388;11.784;2022-09-23T17:00:10;9.20;;;2.80;;
68577;SDS011;61668;45.388;11.784;2022-09-23T17:02:56;7.20;;;1.80;;
68577;SDS011;61668;45.388;11.784;2022-09-23T17:05:40;7.20;;;1.30;;
68577;SDS011;61668;45.388;11.784;2022-09-23T17:08:05;7.40;;;1.80;;
68577;SDS011;61668;45.388;11.784;2022-09-23T17:10:32;9.40;;;2.30;;
68577;SDS011;61668;45.388;11.784;2022-09-23T17:12:58;6.50;;;0.90;;
68577;SDS011;61668;45.388;11.784;2022-09-23T17:15:24;5.70;;;0.80;;
68577;SDS011;61668;45.388;11.784;2022-09-23T17:17:50;5.20;;;0.60;;
68577;SDS011;61668;45.388;11.784;2022-09-23T17:20:16;5.30;;;0.60;;
68577;SDS011;61668;45.388;11.784;2022-09-23T17:22:41;4.20;;;0.40;;
68577;SDS011;61668;45.388;11.784;2022-09-23T17:25:10;5.90;;;1.60;;
68577;SDS011;61668;45.388;11.784;2022-09-23T17:27:35;6.70;;;1.00;;
68577;SDS011;61668;45.388;11.784;2022-09-23T17:30:03;5.20;;;0.60;;
68577;SDS011;61668;45.388;11.784;2022-09-23T17:32:30;6.60;;;0.50;;
68577;SDS011;61668;45.388;11.784;2022-09-23T17:34:55;6.50;;;0.80;;
68577;SDS011;61668;45.388;11.784;2022-09-23T17:37:23;7.50;;;1.00;;
68577;SDS011;61668;45.388;11.784;2022-09-23T17:39:49;4.80;;;0.50;;
68577;SDS011;61668;45.388;11.784;2022-09-23T17:42:14;6.50;;;0.70;;
68577;SDS011;61668;45.388;11.784;2022-09-23T17:44:42;5.10;;;0.60;;
68577;SDS011;61668;45.388;11.784;2022-09-23T17:47:07;6.40;;;0.70;;
68577;SDS011;61668;45.388;11.784;2022-09-23T17:49:33;4.60;;;0.50;;
68577;SDS011;61668;45.388;11.784;2022-09-23T17:52:03;4.90;;;0.60;;